Dores do Indaia, Brazil
Current Conditions -  °F | °C
As of 2:00 PM on Friday 24 Oct 2014 (Local Time) from SBBH Reporting Station
Few Clouds Few Clouds  
Wind Chill: 88°   Ceiling: Unl
Heat Index: 88°   Visibility: 6mi
Dew Point: 48°   Wind: 6mph
Humidity: 25%   Direction: 350°N
Pressure: 30.03"   Gusts: NA
Location:  19.46°S, 45.6°W
Report Text: SBBH 241600Z 35005KT 9999 FEW030 31/09 Q1017
Loading
Personal Weather Stations






























Interactive Weather Map
Tropical Storm Tracking
New forecast layout! Learn more

10-Day Weather Forecast

Advertisements
Track Severe Weather on mobile